createdAt,value
2022-09-27T00:01:15.552Z,2.75
2022-09-27T00:04:03.689Z,2.63
2022-09-27T00:06:52.777Z,3.05
2022-09-27T00:09:40.870Z,2.92
2022-09-27T00:12:28.438Z,4.03
2022-09-27T00:15:16.585Z,3.55
2022-09-27T00:18:04.536Z,3.53
2022-09-27T00:20:52.563Z,2.85
2022-09-27T00:23:42.572Z,4.13
2022-09-27T00:26:30.786Z,4.03
2022-09-27T00:29:20.232Z,3.25
2022-09-27T00:32:08.012Z,5.72
2022-09-27T00:34:56.131Z,3.22
2022-09-27T00:37:43.862Z,2.40
2022-09-27T00:40:33.295Z,3.30
2022-09-27T00:43:24.786Z,3.13
2022-09-27T00:46:17.754Z,4.00
2022-09-27T00:49:18.898Z,4.25
2022-09-27T00:52:18.247Z,2.25
2022-09-27T00:55:14.692Z,2.30
2022-09-27T00:58:07.571Z,2.33
2022-09-27T01:01:02.428Z,2.08
2022-09-27T01:04:00.253Z,2.60
2022-09-27T01:06:48.207Z,2.47
2022-09-27T01:09:36.676Z,2.63
2022-09-27T01:12:46.147Z,2.30
2022-09-27T01:15:45.771Z,2.80
2022-09-27T01:18:44.707Z,2.28
2022-09-27T01:21:55.501Z,1.90
2022-09-27T01:25:10.412Z,3.47
2022-09-27T01:28:24.609Z,1.67
2022-09-27T01:31:25.873Z,1.70
2022-09-27T01:34:28.312Z,2.00
2022-09-27T01:37:27.104Z,2.10
2022-09-27T01:40:30.178Z,1.92
2022-09-27T01:43:25.324Z,2.00
2022-09-27T01:46:25.085Z,1.70
2022-09-27T01:49:19.900Z,2.03
2022-09-27T01:52:11.123Z,1.67
2022-09-27T01:55:04.196Z,3.03
2022-09-27T02:01:01.548Z,1.48
2022-09-27T02:03:54.720Z,1.50
2022-09-27T02:09:40.444Z,1.40
2022-09-27T02:12:36.769Z,1.42
2022-09-27T02:15:27.654Z,1.38
2022-09-27T02:18:24.758Z,1.30
2022-09-27T02:21:20.321Z,1.38
2022-09-27T02:24:15.070Z,1.60
2022-09-27T02:27:14.625Z,1.33
2022-09-27T02:30:09.731Z,1.00
2022-09-27T02:32:57.749Z,2.25
2022-09-27T02:35:46.133Z,1.00
2022-09-27T02:38:35.237Z,0.98
2022-09-27T02:41:24.608Z,1.35
2022-09-27T02:44:16.164Z,1.05
2022-09-27T02:47:32.735Z,3.63
2022-09-27T02:50:56.481Z,1.10
2022-09-27T02:54:04.822Z,3.78
2022-09-27T02:57:14.802Z,4.55
2022-09-27T03:00:09.582Z,1.67
2022-09-27T03:03:06.660Z,1.20
2022-09-27T03:06:04.956Z,1.08
2022-09-27T03:08:54.492Z,1.00
2022-09-27T03:11:42.595Z,1.65
2022-09-27T03:14:30.660Z,1.25
2022-09-27T03:17:19.999Z,1.70
2022-09-27T03:20:09.035Z,1.33
2022-09-27T03:22:57.581Z,1.95
2022-09-27T03:25:47.516Z,2.05
2022-09-27T03:28:35.901Z,1.33
2022-09-27T03:31:23.921Z,0.93
2022-09-27T03:34:11.549Z,1.20
2022-09-27T03:36:59.275Z,1.38
2022-09-27T03:39:47.124Z,0.85
2022-09-27T03:42:36.178Z,1.13
2022-09-27T03:45:24.166Z,1.58
2022-09-27T03:48:11.972Z,1.40
2022-09-27T03:51:00.219Z,1.00
2022-09-27T03:53:47.901Z,1.15
2022-09-27T03:56:35.767Z,1.38
2022-09-27T03:59:24.730Z,1.20
2022-09-27T04:02:12.333Z,1.02
2022-09-27T04:05:00.483Z,1.35
2022-09-27T04:07:49.607Z,1.13
2022-09-27T04:10:37.499Z,1.10
2022-09-27T04:13:25.372Z,1.42
2022-09-27T04:16:14.330Z,1.38
2022-09-27T04:19:03.430Z,1.75
2022-09-27T04:21:51.095Z,1.40
2022-09-27T04:24:39.102Z,1.27
2022-09-27T04:27:27.077Z,0.90
2022-09-27T04:30:15.540Z,1.27
2022-09-27T04:33:04.639Z,1.20
2022-09-27T04:36:09.650Z,1.27
2022-09-27T04:39:00.355Z,2.30
2022-09-27T04:41:48.010Z,1.75
2022-09-27T04:44:35.874Z,1.60
2022-09-27T04:47:24.166Z,4.03
2022-09-27T04:50:13.664Z,1.38
2022-09-27T04:53:01.851Z,2.20
2022-09-27T04:55:50.850Z,1.67
2022-09-27T04:58:38.907Z,1.65
2022-09-27T05:01:27.095Z,1.77
2022-09-27T05:04:15.363Z,3.20
2022-09-27T05:07:05.112Z,2.42
2022-09-27T05:09:53.095Z,3.45
2022-09-27T05:12:42.292Z,1.80
2022-09-27T05:15:30.685Z,2.15
2022-09-27T05:18:18.924Z,2.67
2022-09-27T05:21:07.724Z,2.70
2022-09-27T05:23:57.317Z,1.48
2022-09-27T05:26:45.627Z,3.88
2022-09-27T05:29:33.557Z,2.33
2022-09-27T05:32:21.385Z,1.55
2022-09-27T05:35:10.068Z,1.67
2022-09-27T05:38:00.256Z,2.08
2022-09-27T05:40:51.106Z,2.80
2022-09-27T05:43:38.806Z,2.80
2022-09-27T05:46:26.679Z,2.13
2022-09-27T05:49:14.502Z,1.75
2022-09-27T05:52:04.407Z,2.30
2022-09-27T05:54:52.325Z,2.75
2022-09-27T05:57:41.528Z,5.25
2022-09-27T06:00:30.224Z,6.18
2022-09-27T06:03:22.413Z,2.10
2022-09-27T06:06:10.958Z,3.58
2022-09-27T06:09:01.396Z,2.20
2022-09-27T06:11:51.122Z,2.55
2022-09-27T06:14:40.410Z,1.90
2022-09-27T06:17:28.389Z,2.78
2022-09-27T06:20:18.055Z,2.65
2022-09-27T06:23:09.131Z,3.90
2022-09-27T06:25:57.279Z,2.63
2022-09-27T06:28:45.427Z,1.60
2022-09-27T06:31:34.708Z,1.50
2022-09-27T06:34:22.523Z,2.42
2022-09-27T06:37:11.611Z,1.58
2022-09-27T06:39:59.591Z,1.10
2022-09-27T06:42:47.797Z,1.17
2022-09-27T06:45:36.702Z,1.67
2022-09-27T06:48:25.793Z,0.95
2022-09-27T06:51:13.296Z,2.28
2022-09-27T06:54:01.161Z,0.90
2022-09-27T06:56:50.240Z,1.38
2022-09-27T06:59:55.741Z,0.80
2022-09-27T07:02:43.368Z,1.00
2022-09-27T07:05:32.948Z,1.10
2022-09-27T07:08:20.621Z,0.80
2022-09-27T07:11:09.667Z,0.80
2022-09-27T07:13:57.875Z,2.60
2022-09-27T07:16:47.051Z,0.73
2022-09-27T07:19:35.102Z,0.95
2022-09-27T07:22:25.075Z,0.80
2022-09-27T07:25:13.574Z,2.15
2022-09-27T07:28:05.178Z,0.88
2022-09-27T07:30:57.091Z,1.65
2022-09-27T07:33:44.597Z,0.98
2022-09-27T07:36:32.604Z,1.35
2022-09-27T07:39:25.122Z,1.42
2022-09-27T07:42:15.237Z,1.20
2022-09-27T07:45:07.269Z,1.23
2022-09-27T07:47:56.619Z,1.75
2022-09-27T07:50:44.552Z,1.67
2022-09-27T07:53:33.249Z,1.38
2022-09-27T07:56:22.688Z,1.23
2022-09-27T07:59:10.587Z,2.15
2022-09-27T08:01:58.631Z,0.80
2022-09-27T08:04:47.307Z,0.90
2022-09-27T08:07:34.938Z,1.00
2022-09-27T08:10:25.327Z,1.00
2022-09-27T08:13:20.096Z,1.05
2022-09-27T08:16:08.480Z,0.95
2022-09-27T08:18:56.472Z,1.88
2022-09-27T08:22:47.385Z,1.75
2022-09-27T08:25:41.484Z,0.90
2022-09-27T08:28:34.970Z,1.02
2022-09-27T08:31:24.115Z,0.90
2022-09-27T08:34:15.290Z,0.73
2022-09-27T08:37:03.907Z,0.80
2022-09-27T08:39:51.561Z,1.25
2022-09-27T08:42:49.466Z,1.13
2022-09-27T08:45:55.964Z,1.35
2022-09-27T08:48:50.221Z,1.42
2022-09-27T08:51:40.152Z,1.02
2022-09-27T08:54:33.665Z,1.13
2022-09-27T08:57:25.852Z,0.82
2022-09-27T09:00:15.047Z,1.30
2022-09-27T09:03:04.812Z,1.55
2022-09-27T09:06:12.056Z,3.10
2022-09-27T09:09:16.108Z,1.85
2022-09-27T09:12:42.266Z,1.38
2022-09-27T09:15:55.719Z,1.02
2022-09-27T09:19:10.642Z,2.53
2022-09-27T09:22:14.600Z,1.30
2022-09-27T09:25:32.311Z,1.30
2022-09-27T09:28:38.811Z,1.30
2022-09-27T09:31:41.902Z,1.65
2022-09-27T09:34:37.994Z,2.42
2022-09-27T09:37:38.291Z,2.30
2022-09-27T09:40:33.362Z,1.95
2022-09-27T09:43:31.174Z,1.90
2022-09-27T09:46:27.123Z,1.10
2022-09-27T09:49:23.507Z,1.02
2022-09-27T09:52:19.271Z,1.20
2022-09-27T09:55:19.123Z,1.20
2022-09-27T09:58:24.452Z,1.20
2022-09-27T10:01:20.421Z,1.25
2022-09-27T10:04:08.443Z,1.27
2022-09-27T10:07:00.759Z,1.55
2022-09-27T10:09:50.824Z,1.08
2022-09-27T10:12:38.694Z,1.20
2022-09-27T10:15:30.849Z,1.58
2022-09-27T10:18:20.732Z,1.33
2022-09-27T10:21:16.091Z,3.25
2022-09-27T10:24:12.255Z,1.13
2022-09-27T10:27:05.819Z,3.60
2022-09-27T10:29:59.413Z,1.33
2022-09-27T10:32:53.251Z,2.30
2022-09-27T10:35:45.153Z,4.43
2022-09-27T10:38:35.733Z,0.90
2022-09-27T10:41:32.977Z,1.00
2022-09-27T10:44:28.204Z,1.13
2022-09-27T10:47:25.397Z,1.05
2022-09-27T10:50:45.792Z,1.00
2022-09-27T10:53:33.611Z,1.58
2022-09-27T10:56:27.816Z,2.25
2022-09-27T10:59:22.196Z,1.00
2022-09-27T11:02:22.965Z,1.02
2022-09-27T11:05:34.088Z,1.20
2022-09-27T11:08:29.244Z,2.00
2022-09-27T11:11:22.297Z,2.53
2022-09-27T11:14:23.920Z,2.30
2022-09-27T11:17:22.216Z,1.83
2022-09-27T11:20:22.426Z,1.10
2022-09-27T11:23:52.418Z,4.40
2022-09-27T11:26:57.033Z,1.30
2022-09-27T11:30:06.116Z,1.20
2022-09-27T11:33:26.963Z,1.35
2022-09-27T11:36:34.035Z,1.58
2022-09-27T11:39:33.423Z,1.00
2022-09-27T11:43:03.544Z,1.20
2022-09-27T11:46:18.986Z,0.95
2022-09-27T11:50:07.159Z,0.70
2022-09-27T11:53:16.247Z,0.80
2022-09-27T11:56:18.451Z,1.38
2022-09-27T11:59:35.314Z,0.80
2022-09-27T12:02:53.728Z,0.95
2022-09-27T12:05:58.416Z,0.85
2022-09-27T12:09:07.308Z,0.90
2022-09-27T12:12:03.998Z,1.17
2022-09-27T12:15:01.673Z,1.92
2022-09-27T12:18:02.764Z,2.10
2022-09-27T12:20:51.765Z,1.60
2022-09-27T12:23:45.325Z,1.55
2022-09-27T12:26:40.902Z,1.77
2022-09-27T12:29:33.978Z,2.65
2022-09-27T12:32:28.945Z,1.38
2022-09-27T12:35:23.997Z,1.42
2022-09-27T12:38:18.544Z,1.60
2022-09-27T12:41:10.912Z,1.50
2022-09-27T12:43:58.619Z,1.55
2022-09-27T12:47:05.123Z,1.88
2022-09-27T12:50:05.228Z,1.60
2022-09-27T12:53:04.399Z,2.00
2022-09-27T12:56:21.402Z,1.50
2022-09-27T12:59:44.480Z,1.40
2022-09-27T13:03:25.846Z,1.30
2022-09-27T13:06:42.659Z,1.88
2022-09-27T13:10:06.896Z,2.63
2022-09-27T13:12:56.931Z,2.30
2022-09-27T13:15:48.099Z,2.08
2022-09-27T13:18:59.411Z,1.75
2022-09-27T13:22:05.535Z,2.05
2022-09-27T13:24:55.000Z,2.90
2022-09-27T13:27:43.700Z,2.35
2022-09-27T13:30:49.564Z,3.63
2022-09-27T13:33:48.882Z,2.60
2022-09-27T13:36:37.375Z,3.08
2022-09-27T13:39:25.060Z,2.20
2022-09-27T13:42:35.421Z,2.10
2022-09-27T13:45:29.353Z,1.98
2022-09-27T13:48:25.921Z,1.77
2022-09-27T13:51:32.670Z,3.13
2022-09-27T13:54:41.966Z,3.10
2022-09-27T13:57:55.697Z,1.48
2022-09-27T14:00:49.046Z,1.92
2022-09-27T14:04:06.044Z,2.70
2022-09-27T14:06:58.647Z,1.75
2022-09-27T14:09:53.717Z,1.80
2022-09-27T14:12:44.827Z,2.83
2022-09-27T14:15:35.114Z,1.60
2022-09-27T14:18:24.069Z,1.65
2022-09-27T14:21:23.837Z,1.75
2022-09-27T14:24:29.573Z,2.10
2022-09-27T14:27:21.193Z,2.05
2022-09-27T14:30:17.765Z,1.50
2022-09-27T14:33:06.990Z,2.58
2022-09-27T14:36:12.135Z,2.00
2022-09-27T14:38:59.973Z,2.03
2022-09-27T14:41:47.838Z,3.42
2022-09-27T14:44:36.882Z,2.50
2022-09-27T14:47:27.746Z,1.83
2022-09-27T14:50:24.442Z,2.33
2022-09-27T14:53:24.495Z,6.60
2022-09-27T14:56:18.417Z,4.50
2022-09-27T14:59:15.609Z,2.53
2022-09-27T15:02:16.160Z,2.47
2022-09-27T15:05:04.606Z,2.88
2022-09-27T15:07:56.992Z,3.35
2022-09-27T15:10:46.405Z,4.73
2022-09-27T15:13:36.861Z,3.72
2022-09-27T15:16:27.619Z,2.67
2022-09-27T15:19:18.958Z,4.55
2022-09-27T15:22:35.019Z,3.20
2022-09-27T15:25:34.549Z,3.80
2022-09-27T15:28:22.375Z,4.13
2022-09-27T15:31:10.996Z,2.30
2022-09-27T15:33:59.638Z,2.33
2022-09-27T15:36:58.563Z,3.13
2022-09-27T15:39:46.433Z,2.42
2022-09-27T15:42:59.462Z,2.28
2022-09-27T15:45:53.027Z,2.38
2022-09-27T15:48:40.957Z,2.15
2022-09-27T15:51:42.296Z,2.42
2022-09-27T15:54:33.260Z,2.40
2022-09-27T15:57:20.972Z,1.92
2022-09-27T16:00:17.363Z,2.13
2022-09-27T16:03:05.216Z,2.60
2022-09-27T16:05:56.141Z,1.65
2022-09-27T16:08:45.252Z,2.05
2022-09-27T16:11:32.717Z,1.75
2022-09-27T16:14:20.874Z,2.30
2022-09-27T16:17:12.149Z,2.75
2022-09-27T16:20:00.008Z,2.35
2022-09-27T16:22:48.329Z,2.00
2022-09-27T16:25:36.618Z,2.33
2022-09-27T16:28:24.562Z,1.92
2022-09-27T16:31:14.003Z,1.70
2022-09-27T16:34:02.915Z,2.17
2022-09-27T16:36:51.633Z,2.22
2022-09-27T16:39:40.182Z,4.30
2022-09-27T16:42:28.286Z,3.17
2022-09-27T16:45:19.262Z,4.80
2022-09-27T16:48:07.147Z,4.85
2022-09-27T16:51:15.498Z,4.88
2022-09-27T16:54:08.188Z,3.13
2022-09-27T16:56:55.941Z,3.30
2022-09-27T16:59:43.291Z,2.30
2022-09-27T17:02:31.037Z,2.63
2022-09-27T17:05:20.156Z,3.55
2022-09-27T17:08:09.139Z,4.70
2022-09-27T17:10:57.025Z,2.50
2022-09-27T17:13:45.991Z,5.63
2022-09-27T17:16:33.697Z,4.10
2022-09-27T17:19:22.891Z,3.92
2022-09-27T17:22:10.665Z,4.05
2022-09-27T17:24:59.635Z,3.88
2022-09-27T17:27:47.035Z,3.10
2022-09-27T17:30:35.020Z,3.83
2022-09-27T17:33:22.629Z,5.15
2022-09-27T17:36:12.711Z,3.38
2022-09-27T17:39:00.741Z,2.60
2022-09-27T17:41:52.124Z,2.30
2022-09-27T17:44:40.483Z,4.75
2022-09-27T17:47:46.241Z,2.80
2022-09-27T17:50:33.754Z,4.85
2022-09-27T17:53:24.107Z,3.10
2022-09-27T17:56:16.209Z,3.30
2022-09-27T17:59:06.756Z,4.30
2022-09-27T18:01:55.538Z,3.65
2022-09-27T18:04:43.381Z,2.97
2022-09-27T18:07:30.807Z,4.65
2022-09-27T18:10:20.309Z,2.40
2022-09-27T18:13:08.601Z,2.03
2022-09-27T18:16:00.747Z,2.03
2022-09-27T18:18:50.354Z,1.90
2022-09-27T18:21:38.150Z,1.60
2022-09-27T18:24:26.158Z,1.58
2022-09-27T18:27:16.206Z,2.38
2022-09-27T18:30:04.197Z,2.25
2022-09-27T18:32:54.311Z,1.60
2022-09-27T18:35:41.732Z,3.05
2022-09-27T18:38:29.289Z,2.25
2022-09-27T18:41:19.950Z,1.70
2022-09-27T18:44:08.076Z,2.05
2022-09-27T18:46:55.704Z,1.27
2022-09-27T18:49:44.714Z,1.67
2022-09-27T18:52:32.295Z,2.25
2022-09-27T18:55:24.592Z,2.05
2022-09-27T18:58:16.018Z,2.63
2022-09-27T19:01:06.259Z,1.30
2022-09-27T19:03:54.462Z,1.45
2022-09-27T19:06:43.587Z,1.40
2022-09-27T19:09:31.427Z,2.08
2022-09-27T19:12:19.030Z,1.80
2022-09-27T19:15:08.209Z,2.05
2022-09-27T19:17:56.443Z,3.25
2022-09-27T19:20:44.163Z,5.38
2022-09-27T19:23:33.031Z,2.83
2022-09-27T19:26:24.387Z,2.38
2022-09-27T19:29:12.927Z,2.40
2022-09-27T19:32:01.023Z,4.82
2022-09-27T19:34:48.408Z,2.55
2022-09-27T19:37:35.896Z,2.55
2022-09-27T19:40:24.838Z,5.82
2022-09-27T19:43:12.660Z,1.70
2022-09-27T19:46:05.391Z,3.03
2022-09-27T19:51:42.952Z,10.13
2022-09-27T19:54:30.488Z,10.02
2022-09-27T19:57:20.357Z,7.13
2022-09-27T20:00:10.224Z,6.00
2022-09-27T20:02:58.164Z,4.15
2022-09-27T20:05:54.111Z,4.07
2022-09-27T20:08:43.170Z,3.95
2022-09-27T20:11:31.338Z,3.53
2022-09-27T20:14:20.402Z,3.75
2022-09-27T20:17:08.192Z,2.40
2022-09-27T20:19:56.053Z,2.90
2022-09-27T20:22:43.808Z,4.43
2022-09-27T20:25:31.264Z,2.40
2022-09-27T20:28:20.387Z,3.30
2022-09-27T20:31:12.877Z,1.98
2022-09-27T20:34:03.024Z,3.13
2022-09-27T20:36:52.448Z,3.90
2022-09-27T20:39:40.860Z,2.85
2022-09-27T20:42:28.467Z,3.28
2022-09-27T20:45:16.443Z,3.40
2022-09-27T20:48:05.640Z,1.85
2022-09-27T20:51:00.294Z,3.63
2022-09-27T20:53:51.906Z,1.60
2022-09-27T20:56:42.735Z,1.80
2022-09-27T20:59:30.291Z,1.55
2022-09-27T21:02:18.123Z,3.60
2022-09-27T21:05:08.230Z,1.95
2022-09-27T21:07:56.342Z,1.83
2022-09-27T21:10:43.801Z,2.42
2022-09-27T21:13:31.587Z,2.17
2022-09-27T21:16:21.711Z,1.42
2022-09-27T21:19:11.025Z,6.18
2022-09-27T21:22:03.265Z,7.07
2022-09-27T21:24:50.931Z,7.07
2022-09-27T21:27:38.560Z,5.15
2022-09-27T21:30:26.199Z,6.20
2022-09-27T21:33:13.861Z,5.90
2022-09-27T21:36:08.601Z,3.92
2022-09-27T21:38:58.200Z,2.63
2022-09-27T21:41:45.774Z,2.50
2022-09-27T21:44:33.522Z,3.08
2022-09-27T21:47:21.184Z,1.92
2022-09-27T21:50:10.175Z,3.42
2022-09-27T21:52:58.295Z,1.95
2022-09-27T21:55:57.128Z,5.50
2022-09-27T21:58:45.212Z,5.45
2022-09-27T22:01:35.026Z,2.55
2022-09-27T22:04:22.806Z,1.83
2022-09-27T22:07:10.366Z,2.38
2022-09-27T22:09:57.657Z,3.15
2022-09-27T22:12:46.492Z,4.60
2022-09-27T22:15:37.201Z,3.72
2022-09-27T22:18:24.687Z,3.25
2022-09-27T22:21:15.377Z,2.80
2022-09-27T22:24:07.992Z,2.67
2022-09-27T22:26:56.158Z,6.53
2022-09-27T22:29:44.945Z,2.10
2022-09-27T22:32:32.706Z,2.47
2022-09-27T22:35:21.738Z,5.40
2022-09-27T22:38:09.277Z,3.15
2022-09-27T22:40:57.968Z,3.92
2022-09-27T22:43:45.736Z,2.97
2022-09-27T22:46:35.482Z,2.53
2022-09-27T22:49:23.357Z,2.00
2022-09-27T22:52:11.541Z,1.98
2022-09-27T22:54:59.352Z,3.47
2022-09-27T22:57:46.920Z,3.17
2022-09-27T23:00:34.914Z,3.92
2022-09-27T23:03:24.757Z,1.92
2022-09-27T23:06:12.655Z,3.13
2022-09-27T23:09:01.373Z,2.70
2022-09-27T23:11:49.002Z,2.65
2022-09-27T23:14:40.450Z,1.80
2022-09-27T23:17:30.187Z,3.60
2022-09-27T23:20:19.728Z,2.55
2022-09-27T23:23:13.369Z,2.17
2022-09-27T23:26:02.648Z,2.72
2022-09-27T23:28:54.386Z,2.13
2022-09-27T23:31:42.180Z,4.28
2022-09-27T23:34:30.057Z,2.25
2022-09-27T23:37:19.127Z,4.85
2022-09-27T23:40:09.065Z,2.47
2022-09-27T23:43:00.842Z,2.58
2022-09-27T23:45:48.619Z,1.95
2022-09-27T23:48:37.456Z,1.77
2022-09-27T23:51:25.139Z,1.70
2022-09-27T23:54:14.178Z,2.50
2022-09-27T23:57:02.399Z,1.50
2022-09-27T23:59:50.109Z,2.53
